createdAt,value
2022-12-04T00:02:18.708Z,98880.34
2022-12-04T00:04:45.337Z,98886.22
2022-12-04T00:07:11.976Z,98897.63
2022-12-04T00:09:38.498Z,98898.75
2022-12-04T00:12:05.173Z,98905.81
2022-12-04T00:14:31.740Z,98890.63
2022-12-04T00:16:58.760Z,98886.56
2022-12-04T00:19:25.381Z,98877.44
2022-12-04T00:21:51.984Z,98875.78
2022-12-04T00:24:18.551Z,98878.34
2022-12-04T00:26:45.101Z,98867.88
2022-12-04T00:29:11.726Z,98857.81
2022-12-04T00:31:39.990Z,98848.66
2022-12-04T00:34:08.243Z,98841.63
2022-12-04T00:36:35.007Z,98835.41
2022-12-04T00:39:02.012Z,98824.81
2022-12-04T00:41:31.311Z,98808.94
2022-12-04T00:43:58.106Z,98811.47
2022-12-04T00:46:24.756Z,98813.28
2022-12-04T00:48:51.964Z,98800.75
2022-12-04T00:51:21.737Z,98799.88
2022-12-04T00:53:48.814Z,98799.59
2022-12-04T00:56:27.055Z,98804.00
2022-12-04T00:58:56.531Z,98811.78
2022-12-04T01:01:24.195Z,98820.94
2022-12-04T01:03:52.251Z,98823.00
2022-12-04T01:06:23.519Z,98820.72
2022-12-04T01:08:51.784Z,98818.75
2022-12-04T01:11:19.610Z,98813.31
2022-12-04T01:13:46.883Z,98810.88
2022-12-04T01:16:22.865Z,98824.09
2022-12-04T01:18:50.493Z,98818.91
2022-12-04T01:21:18.362Z,98826.25
2022-12-04T01:23:45.158Z,98823.41
2022-12-04T01:26:12.460Z,98813.97
2022-12-04T01:28:39.560Z,98807.25
2022-12-04T01:31:08.604Z,98810.41
2022-12-04T01:33:36.514Z,98807.59
2022-12-04T01:36:06.134Z,98802.72
2022-12-04T01:38:34.467Z,98801.75
2022-12-04T01:41:00.981Z,98790.47
2022-12-04T01:43:30.938Z,98793.53
2022-12-04T01:45:59.310Z,98803.13
2022-12-04T01:48:38.135Z,98811.75
2022-12-04T01:51:10.616Z,98825.22
2022-12-04T01:53:40.052Z,98825.34
2022-12-04T01:56:07.308Z,98824.94
2022-12-04T01:58:40.929Z,98833.69
2022-12-04T02:01:09.562Z,98848.56
2022-12-04T02:03:39.128Z,98842.91
2022-12-04T02:06:07.092Z,98841.47
2022-12-04T02:08:35.137Z,98831.25
2022-12-04T02:11:13.748Z,98827.41
2022-12-04T02:13:49.141Z,98828.53
2022-12-04T02:16:36.863Z,98829.91
2022-12-04T02:19:13.451Z,98826.78
2022-12-04T02:21:46.083Z,98818.56
2022-12-04T02:24:18.456Z,98818.53
2022-12-04T02:26:53.162Z,98814.59
2022-12-04T02:29:19.539Z,98816.47
2022-12-04T02:31:53.393Z,98816.75
2022-12-04T02:34:34.914Z,98818.88
2022-12-04T02:37:08.607Z,98834.81
2022-12-04T02:39:41.440Z,98844.19
2022-12-04T02:42:15.100Z,98842.34
2022-12-04T02:44:54.582Z,98841.69
2022-12-04T02:47:23.893Z,98844.28
2022-12-04T02:49:55.774Z,98848.00
2022-12-04T02:52:28.358Z,98849.97
2022-12-04T02:55:01.085Z,98833.28
2022-12-04T02:57:35.536Z,98840.66
2022-12-04T03:00:08.816Z,98835.28
2022-12-04T03:02:43.815Z,98842.66
2022-12-04T03:05:15.719Z,98839.25
2022-12-04T03:07:59.226Z,98852.31
2022-12-04T03:10:35.089Z,98865.78
2022-12-04T03:13:09.688Z,98866.72
2022-12-04T03:15:54.072Z,98849.28
2022-12-04T03:18:38.644Z,98842.91
2022-12-04T03:21:11.249Z,98848.84
2022-12-04T03:23:44.553Z,98849.94
2022-12-04T03:26:22.779Z,98840.59
2022-12-04T03:28:58.493Z,98835.09
2022-12-04T03:31:50.650Z,98824.94
2022-12-04T03:34:27.418Z,98821.63
2022-12-04T03:36:58.982Z,98827.44
2022-12-04T03:39:44.806Z,98816.56
2022-12-04T03:42:27.524Z,98824.34
2022-12-04T03:45:17.839Z,98812.56
2022-12-04T03:47:57.200Z,98814.81
2022-12-04T03:50:39.800Z,98821.91
2022-12-04T03:53:23.145Z,98828.38
2022-12-04T03:55:58.595Z,98841.75
2022-12-04T03:58:34.753Z,98845.56
2022-12-04T04:01:05.243Z,98851.34
2022-12-04T04:03:35.744Z,98855.94
2022-12-04T04:06:08.844Z,98851.88
2022-12-04T04:08:38.876Z,98846.28
2022-12-04T04:11:11.797Z,98858.13
2022-12-04T04:14:06.557Z,98846.91
2022-12-04T04:16:56.536Z,98836.84
2022-12-04T04:19:47.039Z,98838.81
2022-12-04T04:22:35.468Z,98844.31
2022-12-04T04:25:08.119Z,98836.16
2022-12-04T04:27:34.842Z,98831.81
2022-12-04T04:30:01.872Z,98821.00
2022-12-04T04:32:46.148Z,98812.75
2022-12-04T04:35:19.536Z,98806.09
2022-12-04T04:38:07.483Z,98816.28
2022-12-04T04:40:36.662Z,98813.59
2022-12-04T04:43:25.193Z,98820.69
2022-12-04T04:45:58.051Z,98815.66
2022-12-04T04:48:38.298Z,98811.22
2022-12-04T04:51:05.853Z,98815.50
2022-12-04T04:53:39.445Z,98811.22
2022-12-04T04:56:06.981Z,98815.59
2022-12-04T04:58:34.007Z,98813.00
2022-12-04T05:01:07.421Z,98816.00
2022-12-04T05:03:35.121Z,98817.06
2022-12-04T05:06:02.000Z,98810.41
2022-12-04T05:08:28.757Z,98811.47
2022-12-04T05:10:55.363Z,98818.34
2022-12-04T05:13:23.041Z,98830.97
2022-12-04T05:15:57.625Z,98834.03
2022-12-04T05:18:24.286Z,98840.50
2022-12-04T05:20:50.810Z,98849.34
2022-12-04T05:23:17.550Z,98846.50
2022-12-04T05:25:45.591Z,98850.97
2022-12-04T05:28:12.087Z,98844.88
2022-12-04T05:30:38.576Z,98844.91
2022-12-04T05:33:05.302Z,98840.97
2022-12-04T05:35:31.997Z,98846.13
2022-12-04T05:37:58.659Z,98837.13
2022-12-04T05:40:25.196Z,98848.06
2022-12-04T05:42:51.712Z,98850.03
2022-12-04T05:45:18.348Z,98851.69
2022-12-04T05:47:45.085Z,98855.22
2022-12-04T05:50:13.105Z,98860.88
2022-12-04T05:52:39.598Z,98865.94
2022-12-04T05:55:06.422Z,98873.84
2022-12-04T05:57:32.892Z,98883.06
2022-12-04T05:59:59.381Z,98892.03
2022-12-04T06:02:25.976Z,98895.91
2022-12-04T06:04:52.647Z,98906.03
2022-12-04T06:07:19.549Z,98921.69
2022-12-04T06:09:46.144Z,98929.41
2022-12-04T06:12:12.704Z,98942.41
2022-12-04T06:14:39.928Z,98943.84
2022-12-04T06:17:07.019Z,98955.63
2022-12-04T06:19:33.618Z,98958.72
2022-12-04T06:22:00.404Z,98953.59
2022-12-04T06:24:27.017Z,98956.88
2022-12-04T06:29:46.718Z,98965.72
2022-12-04T06:32:19.517Z,98968.72
2022-12-04T06:34:52.729Z,98968.66
2022-12-04T06:37:20.758Z,98966.69
2022-12-04T06:39:47.327Z,98968.66
2022-12-04T06:42:13.897Z,98971.47
2022-12-04T06:44:40.409Z,98971.47
2022-12-04T06:47:06.904Z,98971.81
2022-12-04T06:49:33.732Z,98981.25
2022-12-04T06:52:00.365Z,98976.47
2022-12-04T06:54:26.880Z,98984.00
2022-12-04T06:56:53.402Z,98986.31
2022-12-04T06:59:19.887Z,98993.09
2022-12-04T07:01:46.389Z,98996.38
2022-12-04T07:04:13.044Z,98999.69
2022-12-04T07:06:40.467Z,98993.09
2022-12-04T07:09:13.312Z,98987.03
2022-12-04T07:11:40.651Z,98995.28
2022-12-04T07:14:07.325Z,99003.50
2022-12-04T07:16:40.338Z,98994.88
2022-12-04T07:19:09.171Z,99004.25
2022-12-04T07:21:35.651Z,99009.53
2022-12-04T07:24:02.531Z,99013.13
2022-12-04T07:26:30.613Z,99024.13
2022-12-04T07:28:58.586Z,99033.13
2022-12-04T07:31:26.769Z,99042.94
2022-12-04T07:33:54.545Z,99054.97
2022-12-04T07:36:23.794Z,99052.72
2022-12-04T07:38:51.121Z,99058.09
2022-12-04T07:41:19.168Z,99054.13
2022-12-04T07:43:46.326Z,99047.72
2022-12-04T07:46:16.288Z,99055.19
2022-12-04T07:48:43.454Z,99052.53
2022-12-04T07:51:19.743Z,99046.25
2022-12-04T07:53:46.981Z,99048.88
2022-12-04T07:56:15.179Z,99042.25
2022-12-04T07:58:42.230Z,99045.94
2022-12-04T08:01:21.491Z,99054.50
2022-12-04T08:03:50.080Z,99052.31
2022-12-04T08:06:18.557Z,99046.44
2022-12-04T08:08:45.768Z,99045.94
2022-12-04T08:11:14.612Z,99059.44
2022-12-04T08:13:41.148Z,99059.69
2022-12-04T08:16:10.165Z,99058.50
2022-12-04T08:18:36.984Z,99063.97
2022-12-04T08:21:09.666Z,99066.69
2022-12-04T08:23:37.278Z,99060.31
2022-12-04T08:26:04.489Z,99059.38
2022-12-04T08:28:31.840Z,99066.81
2022-12-04T08:31:12.974Z,99064.41
2022-12-04T08:33:41.020Z,99075.16
2022-12-04T08:36:09.201Z,99077.69
2022-12-04T08:38:36.260Z,99079.78
2022-12-04T08:41:04.405Z,99083.38
2022-12-04T08:43:31.178Z,99083.94
2022-12-04T08:46:06.324Z,99086.09
2022-12-04T08:48:33.636Z,99084.75
2022-12-04T08:51:01.676Z,99082.97
2022-12-04T08:53:28.284Z,99093.06
2022-12-04T08:55:54.753Z,99099.63
2022-12-04T08:58:22.402Z,99113.53
2022-12-04T09:00:49.393Z,99113.03
2022-12-04T09:03:19.179Z,99126.53
2022-12-04T09:05:46.344Z,99129.22
2022-12-04T09:08:14.635Z,99141.75
2022-12-04T09:10:42.248Z,99160.03
2022-12-04T09:13:09.039Z,99177.00
2022-12-04T09:15:39.276Z,99193.09
2022-12-04T09:18:06.348Z,99187.75
2022-12-04T09:20:33.148Z,99191.78
2022-12-04T09:23:04.472Z,99198.09
2022-12-04T09:25:34.574Z,99192.41
2022-12-04T09:28:01.086Z,99192.16
2022-12-04T09:30:27.573Z,99192.03
2022-12-04T09:32:54.611Z,99207.72
2022-12-04T09:35:21.112Z,99217.72
2022-12-04T09:37:47.599Z,99214.03
2022-12-04T09:41:00.782Z,99226.94
2022-12-04T09:43:49.535Z,99231.84
2022-12-04T09:46:30.108Z,99225.91
2022-12-04T09:48:59.562Z,99231.25
2022-12-04T09:51:26.713Z,99229.91
2022-12-04T09:54:01.176Z,99231.19
2022-12-04T09:56:29.977Z,99229.00
2022-12-04T09:58:59.201Z,99234.00
2022-12-04T10:01:59.892Z,99231.19
2022-12-04T10:04:26.974Z,99239.72
2022-12-04T10:07:16.644Z,99230.03
2022-12-04T10:09:58.193Z,99230.41
2022-12-04T10:12:36.350Z,99233.84
2022-12-04T10:15:40.487Z,99241.66
2022-12-04T10:18:43.462Z,99247.38
2022-12-04T10:21:32.994Z,99248.41
2022-12-04T10:24:18.022Z,99248.41
2022-12-04T10:26:45.807Z,99256.56
2022-12-04T10:29:25.860Z,99263.34
2022-12-04T10:31:55.654Z,99262.03
2022-12-04T10:34:31.792Z,99263.50
2022-12-04T10:37:03.520Z,99261.06
2022-12-04T10:39:43.937Z,99269.72
2022-12-04T10:42:36.140Z,99277.31
2022-12-04T10:45:05.316Z,99270.56
2022-12-04T10:47:32.723Z,99271.44
2022-12-04T10:50:03.223Z,99274.50
2022-12-04T10:52:29.766Z,99272.13
2022-12-04T10:55:00.637Z,99271.34
2022-12-04T10:57:40.274Z,99260.22
2022-12-04T11:00:30.345Z,99258.22
2022-12-04T11:03:01.049Z,99254.88
2022-12-04T11:05:30.416Z,99250.56
2022-12-04T11:07:59.059Z,99247.69
2022-12-04T11:10:32.023Z,99248.09
2022-12-04T11:13:06.363Z,99246.97
2022-12-04T11:15:42.468Z,99244.56
2022-12-04T11:18:15.868Z,99233.78
2022-12-04T11:20:50.812Z,99242.75
2022-12-04T11:23:18.196Z,99244.97
2022-12-04T11:25:51.051Z,99246.00
2022-12-04T11:28:41.335Z,99247.06
2022-12-04T11:31:09.411Z,99238.81
2022-12-04T11:33:50.030Z,99249.38
2022-12-04T11:36:22.479Z,99237.63
2022-12-04T11:38:51.229Z,99241.50
2022-12-04T11:41:29.758Z,99251.13
2022-12-04T11:44:00.357Z,99252.91
2022-12-04T11:46:31.237Z,99254.91
2022-12-04T11:48:58.105Z,99259.22
2022-12-04T11:51:27.537Z,99261.94
2022-12-04T11:54:43.568Z,99252.13
2022-12-04T11:57:28.358Z,99251.66
2022-12-04T12:00:20.888Z,99255.44
2022-12-04T12:03:09.286Z,99257.19
2022-12-04T12:05:53.692Z,99246.78
2022-12-04T12:08:20.147Z,99251.69
2022-12-04T12:10:49.581Z,99251.97
2022-12-04T12:13:22.161Z,99253.84
2022-12-04T12:16:03.972Z,99251.94
2022-12-04T12:19:00.838Z,99244.28
2022-12-04T12:22:06.991Z,99246.47
2022-12-04T12:24:58.374Z,99254.63
2022-12-04T12:27:44.867Z,99253.63
2022-12-04T12:30:24.370Z,99255.47
2022-12-04T12:33:20.057Z,99253.53
2022-12-04T12:36:08.622Z,99249.75
2022-12-04T12:38:41.548Z,99257.47
2022-12-04T12:41:16.241Z,99258.50
2022-12-04T12:43:45.156Z,99266.03
2022-12-04T12:46:14.762Z,99271.50
2022-12-04T12:49:01.086Z,99268.69
2022-12-04T12:51:39.781Z,99271.69
2022-12-04T12:54:28.456Z,99269.53
2022-12-04T12:57:02.784Z,99273.47
2022-12-04T12:59:30.124Z,99279.16
2022-12-04T13:02:06.022Z,99276.00
2022-12-04T13:04:40.548Z,99278.25
2022-12-04T13:07:19.028Z,99277.16
2022-12-04T13:10:09.521Z,99287.25
2022-12-04T13:12:51.385Z,99288.13
2022-12-04T13:15:21.713Z,99285.06
2022-12-04T13:17:51.320Z,99283.81
2022-12-04T13:20:30.646Z,99292.34
2022-12-04T13:23:39.085Z,99291.16
2022-12-04T13:26:14.488Z,99285.97
2022-12-04T13:29:09.315Z,99288.00
2022-12-04T13:31:55.133Z,99293.03
2022-12-04T13:34:24.699Z,99292.66
2022-12-04T13:37:16.605Z,99297.88
2022-12-04T13:39:55.385Z,99290.84
2022-12-04T13:42:25.735Z,99287.06
2022-12-04T13:45:02.700Z,99287.47
2022-12-04T13:47:32.798Z,99289.38
2022-12-04T13:50:28.042Z,99281.22
2022-12-04T13:52:55.226Z,99285.44
2022-12-04T13:55:39.387Z,99288.91
2022-12-04T13:58:27.568Z,99284.03
2022-12-04T14:01:13.622Z,99286.75
2022-12-04T14:03:49.727Z,99282.34
2022-12-04T14:06:34.075Z,99271.44
2022-12-04T14:09:04.590Z,99268.31
2022-12-04T14:11:45.154Z,99270.84
2022-12-04T14:14:37.980Z,99281.13
2022-12-04T14:17:05.195Z,99291.31
2022-12-04T14:19:38.707Z,99294.47
2022-12-04T14:22:05.219Z,99301.50
2022-12-04T14:24:36.448Z,99293.88
2022-12-04T14:27:30.520Z,99294.81
2022-12-04T14:29:58.668Z,99298.50
2022-12-04T14:32:30.739Z,99296.50
2022-12-04T14:34:58.200Z,99292.34
2022-12-04T14:37:36.352Z,99297.88
2022-12-04T14:40:07.017Z,99287.91
2022-12-04T14:42:36.629Z,99291.56
2022-12-04T14:45:17.292Z,99294.94
2022-12-04T14:48:16.975Z,99290.03
2022-12-04T14:50:55.575Z,99294.38
2022-12-04T14:53:35.253Z,99291.31
2022-12-04T14:56:10.472Z,99294.06
2022-12-04T14:58:39.665Z,99290.44
2022-12-04T15:01:28.350Z,99290.44
2022-12-04T15:03:59.066Z,99297.31
2022-12-04T15:06:28.591Z,99306.53
2022-12-04T15:09:19.452Z,99299.84
2022-12-04T15:12:13.200Z,99309.31
2022-12-04T15:14:44.839Z,99318.38
2022-12-04T15:17:12.303Z,99317.41
2022-12-04T15:19:40.030Z,99321.78
2022-12-04T15:22:28.960Z,99331.91
2022-12-04T15:24:56.543Z,99331.06
2022-12-04T15:27:31.938Z,99340.16
2022-12-04T15:30:00.497Z,99353.63
2022-12-04T15:32:28.823Z,99356.72
2022-12-04T15:35:03.246Z,99365.13
2022-12-04T15:37:31.489Z,99356.53
2022-12-04T15:39:59.160Z,99360.66
2022-12-04T15:42:28.608Z,99359.22
2022-12-04T15:45:01.081Z,99362.56
2022-12-04T15:47:38.410Z,99358.44
2022-12-04T15:50:15.088Z,99359.81
2022-12-04T15:52:54.155Z,99368.00
2022-12-04T15:55:23.141Z,99363.00
2022-12-04T15:57:56.168Z,99354.69
2022-12-04T16:00:28.129Z,99359.44
2022-12-04T16:02:55.046Z,99359.19
2022-12-04T16:05:21.502Z,99363.25
2022-12-04T16:07:58.149Z,99354.03
2022-12-04T16:10:31.427Z,99346.16
2022-12-04T16:13:00.645Z,99347.69
2022-12-04T16:15:42.700Z,99353.31
2022-12-04T16:18:13.474Z,99355.47
2022-12-04T16:20:40.946Z,99356.88
2022-12-04T16:23:07.445Z,99353.50
2022-12-04T16:25:33.929Z,99351.19
2022-12-04T16:28:01.522Z,99353.50
2022-12-04T16:30:31.764Z,99350.75
2022-12-04T16:32:58.304Z,99343.22
2022-12-04T16:35:24.878Z,99346.34
2022-12-04T16:37:51.667Z,99343.75
2022-12-04T16:40:18.277Z,99346.97
2022-12-04T16:42:44.865Z,99351.97
2022-12-04T16:45:33.043Z,99352.63
2022-12-04T16:47:59.638Z,99353.56
2022-12-04T16:50:27.312Z,99352.53
2022-12-04T16:52:54.399Z,99349.16
2022-12-04T16:55:32.574Z,99343.00
2022-12-04T16:57:59.428Z,99331.84
2022-12-04T17:00:26.054Z,99322.41
2022-12-04T17:02:53.363Z,99323.25
2022-12-04T17:05:23.351Z,99320.44
2022-12-04T17:07:50.144Z,99314.31
2022-12-04T17:10:22.006Z,99302.38
2022-12-04T17:12:53.443Z,99303.09
2022-12-04T17:15:20.048Z,99298.78
2022-12-04T17:17:46.514Z,99301.22
2022-12-04T17:20:16.127Z,99290.00
2022-12-04T17:22:42.876Z,99280.41
2022-12-04T17:25:11.117Z,99279.34
2022-12-04T17:27:38.012Z,99279.31
2022-12-04T17:30:06.092Z,99277.47
2022-12-04T17:32:34.820Z,99270.59
2022-12-04T17:35:02.340Z,99264.91
2022-12-04T17:37:28.829Z,99285.09
2022-12-04T17:39:55.355Z,99285.84
2022-12-04T17:42:22.057Z,99291.78
2022-12-04T17:44:48.844Z,99283.31
2022-12-04T17:47:15.730Z,99290.88
2022-12-04T17:49:42.633Z,99292.41
2022-12-04T17:52:09.189Z,99294.84
2022-12-04T17:54:36.015Z,99297.38
2022-12-04T17:57:02.787Z,99301.66
2022-12-04T17:59:29.331Z,99308.72
2022-12-04T18:01:56.356Z,99314.41
2022-12-04T18:04:22.980Z,99325.34
2022-12-04T18:06:49.460Z,99322.72
2022-12-04T18:09:17.224Z,99321.75
2022-12-04T18:11:50.831Z,99320.06
2022-12-04T18:14:22.079Z,99322.34
2022-12-04T18:16:53.128Z,99323.03
2022-12-04T18:19:21.819Z,99324.72
2022-12-04T18:21:48.469Z,99322.09
2022-12-04T18:24:15.794Z,99321.97
2022-12-04T18:26:45.257Z,99324.34
2022-12-04T18:29:20.151Z,99320.19
2022-12-04T18:31:47.325Z,99319.97
2022-12-04T18:34:14.515Z,99319.06
2022-12-04T18:36:42.777Z,99328.34
2022-12-04T18:39:13.315Z,99325.69
2022-12-04T18:41:40.125Z,99318.25
2022-12-04T18:44:06.893Z,99321.63
2022-12-04T18:46:33.540Z,99321.63
2022-12-04T18:49:01.032Z,99324.75
2022-12-04T18:51:35.386Z,99329.66
2022-12-04T18:54:05.550Z,99332.13
2022-12-04T18:56:33.733Z,99334.59
2022-12-04T18:59:03.237Z,99341.13
2022-12-04T19:01:31.518Z,99341.91
2022-12-04T19:04:02.502Z,99349.44
2022-12-04T19:06:41.334Z,99343.44
2022-12-04T19:09:11.659Z,99334.03
2022-12-04T19:11:39.223Z,99333.09
2022-12-04T19:14:16.184Z,99335.56
2022-12-04T19:16:47.799Z,99343.78
2022-12-04T19:19:17.869Z,99343.66
2022-12-04T19:21:44.555Z,99344.38
2022-12-04T19:24:11.800Z,99343.78
2022-12-04T19:26:39.072Z,99341.31
2022-12-04T19:29:07.440Z,99352.28
2022-12-04T19:31:36.076Z,99356.41
2022-12-04T19:34:03.965Z,99352.75
2022-12-04T19:36:31.957Z,99360.13
2022-12-04T19:38:59.707Z,99358.59
2022-12-04T19:41:31.002Z,99364.22
2022-12-04T19:44:00.272Z,99364.31
2022-12-04T19:46:30.259Z,99371.03
2022-12-04T19:49:03.691Z,99370.28
2022-12-04T19:51:34.349Z,99366.91
2022-12-04T19:54:01.927Z,99373.66
2022-12-04T19:56:30.757Z,99372.81
2022-12-04T19:59:00.210Z,99378.66
2022-12-04T20:01:29.385Z,99385.91
2022-12-04T20:03:56.915Z,99383.94
2022-12-04T20:06:26.765Z,99390.84
2022-12-04T20:08:58.925Z,99385.00
2022-12-04T20:11:26.726Z,99388.44
2022-12-04T20:13:55.600Z,99384.13
2022-12-04T20:16:24.220Z,99390.78
2022-12-04T20:18:51.000Z,99384.66
2022-12-04T20:21:18.838Z,99387.84
2022-12-04T20:23:49.486Z,99393.78
2022-12-04T20:26:23.452Z,99388.19
2022-12-04T20:28:50.368Z,99388.78
2022-12-04T20:31:26.185Z,99395.38
2022-12-04T20:33:54.560Z,99399.38
2022-12-04T20:36:23.352Z,99405.06
2022-12-04T20:38:52.303Z,99405.44
2022-12-04T20:41:18.903Z,99400.44
2022-12-04T20:43:47.327Z,99401.81
2022-12-04T20:46:22.594Z,99402.25
2022-12-04T20:48:50.959Z,99402.03
2022-12-04T20:51:19.538Z,99392.97
2022-12-04T20:53:47.268Z,99390.59
2022-12-04T20:56:14.251Z,99391.75
2022-12-04T20:58:40.975Z,99393.34
2022-12-04T21:01:09.321Z,99399.41
2022-12-04T21:03:35.949Z,99411.16
2022-12-04T21:06:02.639Z,99407.09
2022-12-04T21:08:48.054Z,99415.66
2022-12-04T21:11:14.545Z,99411.91
2022-12-04T21:13:59.536Z,99418.69
2022-12-04T21:16:26.121Z,99412.91
2022-12-04T21:18:52.622Z,99408.78
2022-12-04T21:21:19.148Z,99406.25
2022-12-04T21:23:45.819Z,99421.97
2022-12-04T21:26:12.667Z,99425.06
2022-12-04T21:28:39.417Z,99420.66
2022-12-04T21:31:07.379Z,99419.56
2022-12-04T21:33:34.694Z,99415.88
2022-12-04T21:36:07.629Z,99409.84
2022-12-04T21:38:39.130Z,99411.31
2022-12-04T21:41:07.784Z,99410.63
2022-12-04T21:43:35.856Z,99409.06
2022-12-04T21:46:09.054Z,99414.06
2022-12-04T21:48:37.186Z,99400.56
2022-12-04T21:51:16.881Z,99410.44
2022-12-04T21:53:54.971Z,99414.78
2022-12-04T21:56:22.680Z,99423.09
2022-12-04T21:58:49.692Z,99428.81
2022-12-04T22:01:17.749Z,99427.22
2022-12-04T22:03:44.607Z,99419.13
2022-12-04T22:06:11.313Z,99425.41
2022-12-04T22:08:40.652Z,99426.94
2022-12-04T22:11:09.409Z,99432.63
2022-12-04T22:13:41.249Z,99431.84
2022-12-04T22:16:15.212Z,99443.66
2022-12-04T22:18:42.048Z,99452.91
2022-12-04T22:21:11.610Z,99451.03
2022-12-04T22:23:38.817Z,99453.38
2022-12-04T22:26:10.739Z,99456.78
2022-12-04T22:28:38.633Z,99451.94
2022-12-04T22:31:14.046Z,99457.97
2022-12-04T22:33:41.996Z,99466.69
2022-12-04T22:36:11.201Z,99468.44
2022-12-04T22:38:52.573Z,99468.34
2022-12-04T22:41:25.878Z,99469.94
2022-12-04T22:43:52.488Z,99477.59
2022-12-04T22:46:19.341Z,99477.00
2022-12-04T22:48:46.586Z,99477.78
2022-12-04T22:51:16.077Z,99481.19
2022-12-04T22:53:48.650Z,99481.75
2022-12-04T22:56:21.106Z,99493.78
2022-12-04T22:58:47.945Z,99487.06
2022-12-04T23:01:23.401Z,99484.88
2022-12-04T23:03:50.998Z,99500.03
2022-12-04T23:06:19.595Z,99495.28
2022-12-04T23:08:46.617Z,99490.78
2022-12-04T23:11:17.622Z,99493.88
2022-12-04T23:13:49.677Z,99486.50
2022-12-04T23:16:20.074Z,99484.88
2022-12-04T23:18:47.468Z,99484.13
2022-12-04T23:21:15.781Z,99489.34
2022-12-04T23:23:44.457Z,99488.09
2022-12-04T23:26:21.439Z,99474.81
2022-12-04T23:28:48.304Z,99476.63
2022-12-04T23:31:15.563Z,99482.63
2022-12-04T23:33:42.512Z,99481.69
2022-12-04T23:36:11.765Z,99486.75
2022-12-04T23:38:39.894Z,99492.47
2022-12-04T23:41:14.541Z,99493.22
2022-12-04T23:43:42.281Z,99505.59
2022-12-04T23:46:11.705Z,99495.31
2022-12-04T23:48:43.536Z,99492.59
2022-12-04T23:51:12.992Z,99488.09
2022-12-04T23:53:39.765Z,99490.44
2022-12-04T23:56:14.080Z,99487.63
2022-12-04T23:58:41.453Z,99488.06
